aviador You're here:

KNEW Decoded Metar

NEW ORLEANS/LAKE in LA, USA
Report Time2017-11-23 02:53:00
UTC Time2017-11-23 03:32:50
Flight Rules vfr VFR
Wind360° at 20 kt
W.Decomp.*RWY 36: 20.0 kt HW 0.7 kt LCW
RWY 27: 0.7 kt HW 20.0 kt RCW
Visibility9999 m
Phenomena:N/A
Clouds:N/A
Expected CloudBase > 2,800 ft AGL from Temp-Dew spread
CeilingNone
Temp15°C (ISA 0)
Dew Point08°C (63% RH)
AAT7.3°C
QNH1021 hPa
Density Alt-112 ft
Elevation10 ft
Report Wrong Elevation
Raw Report
KNEW 230253Z 36020KT 10SM CLR 15/08 A3014 RMK AO2 PK WND
35026/0238 SLP199 T01500078 53010=

Extra information for KNEW:More info

Metar Taf Metar & Taf Last 4 Metars F.Rules Stats Wind Profile Meteogram Temp Stats Airport Information Weather charts Add Link Nearby VenuesMetar ALERT Operation Metar Decoded Social comments

AIRNAV info for KNEW